Time;durP1;ratioP1;P1;durP2;ratioP2;P2;SDS_P1;SDS_P2;PMS_P1;PMS_P2;Temp;Humidity;BMP_temperature;BMP_pressure;BME280_temperature;BME280_humidity;BME280_pressure;Samples;Min_cycle;Max_cycle;Signal;HPM_P1;HPM_P2
2022/11/25 00:01:13;;;;;;;22.10;9.80;;;;;;;7.58;51.71;101309.47;7391512;19;20018;-58
2022/11/25 00:03:41;;;;;;;21.55;10.02;;;;;;;7.55;51.86;101310.09;7392591;19;20013;-58
2022/11/25 00:06:18;;;;;;;17.63;8.88;;;;;;;7.63;51.63;101319.44;7389488;19;20344;-59
2022/11/25 00:08:46;;;;;;;18.30;8.75;;;;;;;7.69;51.48;101318.19;7390878;19;20002;-58
2022/11/25 00:11:12;;;;;;;20.73;9.40;;;;;;;7.63;51.44;101313.19;7389827;19;19999;-59
2022/11/25 00:13:40;;;;;;;22.10;9.20;;;;;;;7.65;51.53;101311.75;7391069;19;20011;-59
2022/11/25 00:16:08;;;;;;;17.90;8.50;;;;;;;7.60;51.45;101314.59;7390505;19;20020;-59
2022/11/25 00:18:35;;;;;;;21.38;9.18;;;;;;;7.55;51.53;101314.72;7391044;19;20730;-59
2022/11/25 00:21:22;;;;;;;17.13;9.05;;;;;;;7.66;51.43;101302.50;7390911;19;20447;-58
2022/11/25 00:23:59;;;;;;;21.95;8.50;;;;;;;7.65;51.13;101298.19;7391759;19;20001;-59
2022/11/25 00:26:27;;;;;;;22.90;9.00;;;;;;;7.64;51.37;101307.44;7390809;19;20003;-58
2022/11/25 00:28:53;;;;;;;21.23;8.73;;;;;;;7.64;51.39;101303.94;7390595;19;20007;-59
2022/11/25 00:31:24;;;;;;;21.10;9.02;;;;;;;7.55;51.36;101304.66;7389254;19;20024;-59
2022/11/25 00:33:50;;;;;;;20.02;8.15;;;;;;;7.60;51.64;101295.59;7390500;19;20035;-58
2022/11/25 00:36:34;;;;;;;20.30;8.50;;;;;;;7.69;51.18;101299.16;7389970;19;20009;-57
2022/11/25 00:39:12;;;;;;;22.88;8.60;;;;;;;7.69;51.17;101299.16;7390195;19;20668;-58
2022/11/25 00:44:40;;;;;;;;;;;;;;;7.74;51.00;101303.66;7391470;19;20014;-58
2022/11/25 00:47:17;;;;;;;17.70;7.68;;;;;;;7.71;51.18;101301.56;7388829;19;19934;-58
2022/11/25 00:49:45;;;;;;;18.55;7.40;;;;;;;7.65;51.26;101292.75;7390005;19;20014;-58
2022/11/25 00:52:14;;;;;;;19.23;6.90;;;;;;;7.76;51.07;101296.81;7390607;19;20017;-58
2022/11/25 00:54:40;;;;;;;17.90;7.28;;;;;;;7.85;50.75;101293.38;7390727;19;20119;-58
2022/11/25 00:57:06;;;;;;;20.27;7.30;;;;;;;7.86;50.76;101293.03;7390108;19;20026;-58
2022/11/25 00:59:32;;;;;;;20.77;6.93;;;;;;;7.79;50.85;101296.19;7389197;19;20514;-58
2022/11/25 01:01:57;;;;;;;19.60;7.78;;;;;;;7.74;51.04;101304.47;7389506;19;20014;-58
2022/11/25 01:04:23;;;;;;;16.00;6.25;;;;;;;7.78;50.85;101297.31;7390669;19;20002;-58
2022/11/25 01:06:49;;;;;;;18.98;7.03;;;;;;;7.82;50.91;101296.69;7389947;19;20009;-59
2022/11/25 01:09:15;;;;;;;22.15;6.68;;;;;;;7.74;51.00;101290.88;7389816;19;20002;-58
2022/11/25 01:11:41;;;;;;;15.75;6.32;;;;;;;7.65;50.77;101287.31;7389097;19;20027;-57
2022/11/25 01:14:07;;;;;;;17.77;6.10;;;;;;;7.78;50.86;101286.44;7390014;19;20361;-60
2022/11/25 01:16:33;;;;;;;18.80;6.60;;;;;;;7.76;50.92;101283.25;7389226;19;20013;-58
2022/11/25 01:19:00;;;;;;;15.43;6.22;;;;;;;7.76;50.81;101280.53;7388969;19;19995;-58
2022/11/25 01:21:28;;;;;;;18.02;6.13;;;;;;;7.81;50.62;101273.34;7388816;19;20003;-59
2022/11/25 01:23:54;;;;;;;20.13;6.25;;;;;;;7.82;50.84;101283.09;7389144;19;20530;-58
2022/11/25 01:26:23;;;;;;;14.80;6.25;;;;;;;7.78;50.51;101275.56;7387577;19;20012;-58
2022/11/25 01:28:54;;;;;;;18.65;6.13;;;;;;;7.71;50.68;101280.66;7389267;19;20032;-57
2022/11/25 01:31:22;;;;;;;20.15;6.22;;;;;;;7.74;50.76;101285.44;7387895;19;19991;-58
2022/11/25 01:34:01;;;;;;;17.92;6.13;;;;;;;7.65;51.01;101281.88;7389470;19;20018;-58
2022/11/25 01:36:28;;;;;;;18.83;5.80;;;;;;;7.63;50.87;101286.81;7389005;19;20108;-59
2022/11/25 01:38:56;;;;;;;18.58;6.07;;;;;;;7.70;50.61;101289.91;7388913;19;20002;-59
2022/11/25 01:41:23;;;;;;;16.80;5.53;;;;;;;7.75;50.63;101288.97;7395908;19;20002;-59
2022/11/25 01:44:28;;;;;;;17.40;5.72;;;;;;;7.69;50.24;101282.84;7396775;19;20014;-59
2022/11/25 01:46:57;;;;;;;19.42;6.13;;;;;;;7.68;50.64;101281.28;7391872;19;20001;-58
2022/11/25 01:49:29;;;;;;;19.70;5.80;;;;;;;7.72;50.47;101276.00;7392163;19;20002;-59
2022/11/25 01:52:05;;;;;;;15.13;5.95;;;;;;;7.68;50.53;101280.44;7394469;19;19987;-58
2022/11/25 01:54:37;;;;;;;19.05;6.30;;;;;;;7.60;50.64;101279.28;7394626;19;20315;-58
2022/11/25 01:57:08;;;;;;;17.55;5.47;;;;;;;7.63;50.66;101275.97;7395373;19;20007;-58
2022/11/25 01:59:42;;;;;;;15.73;5.03;;;;;;;7.69;50.45;101261.13;7394443;19;20078;-58
2022/11/25 02:02:08;;;;;;;14.73;5.78;;;;;;;7.74;50.24;101262.91;7394435;19;20074;-58
2022/11/25 02:04:38;;;;;;;14.25;5.20;;;;;;;7.70;50.30;101261.94;7396289;19;20174;-58
2022/11/25 02:07:10;;;;;;;16.90;5.22;;;;;;;7.62;50.48;101260.75;7395445;19;20074;-57
2022/11/25 02:09:38;;;;;;;18.15;5.75;;;;;;;7.66;50.25;101261.72;7394021;19;20002;-59
2022/11/25 02:12:04;;;;;;;18.17;5.45;;;;;;;7.69;50.18;101254.88;7396103;19;20316;-59
2022/11/25 02:14:30;;;;;;;13.48;5.43;;;;;;;7.71;50.17;101258.91;7394110;19;20005;-59
2022/11/25 02:16:59;;;;;;;21.17;5.43;;;;;;;7.66;50.31;101267.16;7394736;19;19999;-58
2022/11/25 02:19:41;;;;;;;13.38;5.28;;;;;;;7.44;50.78;101276.13;7394193;19;20074;-58
2022/11/25 02:22:14;;;;;;;18.42;5.00;;;;;;;7.39;50.80;101268.09;7393484;19;19999;-57
2022/11/25 02:24:45;;;;;;;13.50;5.63;;;;;;;7.46;50.58;101273.91;7394958;19;19994;-59
2022/11/25 02:27:12;;;;;;;17.30;5.25;;;;;;;7.51;50.44;101267.56;7394761;19;19991;-58
2022/11/25 02:29:38;;;;;;;18.02;5.55;;;;;;;7.63;50.41;101269.69;7391003;19;19999;-57
2022/11/25 02:32:05;;;;;;;16.33;5.57;;;;;;;7.50;50.42;101269.47;7394955;19;20011;-57
2022/11/25 02:34:30;;;;;;;16.00;5.40;;;;;;;7.44;50.53;101267.19;7394706;19;19995;-57
2022/11/25 02:36:58;;;;;;;16.90;5.45;;;;;;;7.45;50.63;101263.38;7392324;19;19994;-57
2022/11/25 02:39:24;;;;;;;16.98;5.28;;;;;;;7.52;50.54;101263.72;7393808;19;20003;-58
2022/11/25 02:41:54;;;;;;;15.68;4.82;;;;;;;7.57;50.47;101258.97;7391784;19;20009;-58
2022/11/25 02:44:20;;;;;;;17.92;5.10;;;;;;;7.56;50.40;101256.56;7394415;19;20002;-58
2022/11/25 02:46:46;;;;;;;12.48;4.38;;;;;;;7.53;50.25;101257.16;7393196;19;20011;-57
2022/11/25 02:49:12;;;;;;;17.65;5.50;;;;;;;7.57;50.19;101244.59;7391670;19;20111;-58
2022/11/25 02:51:40;;;;;;;14.48;5.63;;;;;;;7.58;50.50;101243.50;7392063;19;20482;-58
2022/11/25 02:54:06;;;;;;;18.08;5.82;;;;;;;7.53;50.08;101251.75;7394141;19;20100;-58
2022/11/25 02:56:34;;;;;;;14.68;5.40;;;;;;;7.44;50.24;101256.31;7393736;19;20026;-58
2022/11/25 02:59:00;;;;;;;16.42;5.22;;;;;;;7.44;50.19;101257.13;7392341;19;20462;-57
2022/11/25 03:01:27;;;;;;;13.02;5.07;;;;;;;7.40;50.45;101251.50;7392746;19;19999;-58
2022/11/25 03:03:53;;;;;;;16.60;5.03;;;;;;;7.46;50.32;101245.94;7393956;19;20388;-59
2022/11/25 03:06:18;;;;;;;16.85;5.47;;;;;;;7.47;50.18;101245.63;7392416;19;20002;-58
2022/11/25 03:08:44;;;;;;;12.60;4.68;;;;;;;7.58;50.08;101244.28;7393426;19;20005;-60
2022/11/25 03:11:10;;;;;;;18.35;5.05;;;;;;;7.61;49.97;101237.41;7391940;19;20023;-58
2022/11/25 03:13:35;;;;;;;17.83;5.07;;;;;;;7.65;49.93;101238.41;7393938;19;19995;-58
2022/11/25 03:16:01;;;;;;;17.02;5.22;;;;;;;7.70;49.83;101224.69;7392826;19;20003;-59
2022/11/25 03:18:27;;;;;;;13.52;4.47;;;;;;;7.68;50.00;101226.94;7393279;19;20474;-59
2022/11/25 03:20:54;;;;;;;15.63;4.93;;;;;;;7.69;49.90;101233.94;7393197;19;20091;-59
2022/11/25 03:23:20;;;;;;;13.55;4.85;;;;;;;7.68;49.83;101232.34;7393308;19;19998;-59
2022/11/25 03:25:46;;;;;;;13.57;5.07;;;;;;;7.78;49.53;101229.38;7392512;19;19998;-59
2022/11/25 03:28:12;;;;;;;13.52;4.95;;;;;;;7.84;49.41;101226.53;7392584;19;20481;-59
2022/11/25 03:30:38;;;;;;;15.80;4.35;;;;;;;7.81;49.49;101230.66;7391158;19;20027;-57
2022/11/25 03:33:04;;;;;;;13.57;4.18;;;;;;;7.74;49.85;101225.66;7392510;19;20070;-58
2022/11/25 03:35:29;;;;;;;16.13;4.85;;;;;;;7.61;49.96;101240.13;7391896;19;20484;-58
2022/11/25 03:37:55;;;;;;;13.25;4.28;;;;;;;7.67;49.90;101236.19;7392124;19;20372;-58
2022/11/25 03:40:20;;;;;;;14.07;4.40;;;;;;;7.69;49.93;101242.09;7389286;19;19999;-58
2022/11/25 03:42:46;;;;;;;13.70;4.88;;;;;;;7.68;49.92;101243.22;7390791;19;19995;-58
2022/11/25 03:45:13;;;;;;;12.57;3.95;;;;;;;7.76;49.61;101244.38;7389853;19;20041;-58
2022/11/25 03:47:43;;;;;;;14.48;4.45;;;;;;;7.73;49.63;101243.09;7392832;19;20002;-58
2022/11/25 03:50:11;;;;;;;12.25;4.22;;;;;;;7.76;49.94;101244.38;7390722;19;20002;-58
2022/11/25 03:52:37;;;;;;;14.98;4.38;;;;;;;7.86;49.68;101243.31;7392296;19;19999;-59
2022/11/25 03:55:04;;;;;;;16.08;4.93;;;;;;;7.92;49.34;101248.31;7389653;19;20017;-59
2022/11/25 03:57:31;;;;;;;13.30;3.83;;;;;;;7.92;49.55;101242.06;7389838;19;20686;-59
2022/11/25 03:59:56;;;;;;;15.90;3.90;;;;;;;7.95;49.45;101246.88;7390444;19;20023;-59
2022/11/25 04:02:22;;;;;;;13.60;4.13;;;;;;;8.00;48.99;101249.47;7390060;19;20324;-59
2022/11/25 04:04:48;;;;;;;13.40;4.05;;;;;;;7.85;49.32;101247.16;7392287;19;20019;-59
2022/11/25 04:07:13;;;;;;;15.85;4.38;;;;;;;7.82;49.29;101242.34;7391452;19;20003;-58
2022/11/25 04:09:39;;;;;;;16.73;4.78;;;;;;;7.84;49.53;101246.34;7390984;19;20353;-58
2022/11/25 04:14:49;;;;;;;;;;;;;;;7.82;49.00;101245.06;7391707;19;20030;-58
2022/11/25 04:17:14;;;;;;;16.33;5.07;;;;;;;7.82;49.35;101248.56;7390105;19;19922;-58
2022/11/25 04:19:40;;;;;;;15.25;4.88;;;;;;;7.84;49.30;101254.50;7389192;19;20002;-58
2022/11/25 04:22:06;;;;;;;14.55;4.47;;;;;;;7.81;49.46;101251.59;7390106;19;20028;-58
2022/11/25 04:24:31;;;;;;;14.05;4.78;;;;;;;7.75;49.56;101248.22;7391123;19;20031;-57
2022/11/25 04:26:57;;;;;;;12.63;3.88;;;;;;;7.77;49.59;101251.41;7390188;19;20482;-60
2022/11/25 04:29:23;;;;;;;12.60;4.15;;;;;;;7.82;49.42;101247.78;7390376;19;20078;-58
2022/11/25 04:31:49;;;;;;;13.55;4.00;;;;;;;7.89;49.20;101257.06;7389220;19;19987;-57
2022/11/25 04:34:14;;;;;;;13.18;4.28;;;;;;;7.78;49.52;101253.84;7393856;19;20016;-59
2022/11/25 04:36:40;;;;;;;13.25;3.88;;;;;;;7.83;49.28;101257.53;7392864;19;20006;-59
2022/11/25 04:39:06;;;;;;;16.17;5.10;;;;;;;7.86;49.29;101248.75;7393278;19;20075;-59
2022/11/25 04:41:31;;;;;;;14.63;4.15;;;;;;;7.89;49.23;101253.56;7392509;19;19995;-58
2022/11/25 04:44:00;;;;;;;13.15;3.72;;;;;;;7.90;49.10;101250.53;7393461;19;20003;-58
2022/11/25 04:46:32;;;;;;;16.75;4.40;;;;;;;7.91;49.29;101251.34;7392370;19;19999;-59
2022/11/25 04:48:57;;;;;;;11.90;3.97;;;;;;;7.95;49.25;101263.19;7388938;19;20010;-59
2022/11/25 04:51:23;;;;;;;13.05;4.20;;;;;;;7.90;49.34;101260.63;7392851;19;20477;-59
2022/11/25 04:53:48;;;;;;;16.48;4.00;;;;;;;7.94;49.26;101250.72;7393054;19;19998;-59
2022/11/25 04:56:18;;;;;;;14.57;4.07;;;;;;;7.96;49.09;101256.63;7392172;19;19998;-59
2022/11/25 05:01:29;;;;;;;12.73;3.92;;;;;;;7.86;49.55;101256.91;7389288;19;20075;-60
2022/11/25 05:03:55;;;;;;;11.30;3.67;;;;;;;7.72;49.67;101255.06;7390376;19;20006;-59
2022/11/25 05:06:21;;;;;;;12.50;3.55;;;;;;;7.78;49.83;101253.84;7389014;19;20398;-59
2022/11/25 05:08:50;;;;;;;11.75;3.95;;;;;;;7.88;49.53;101258.22;7388565;19;20203;-58
2022/11/25 05:11:16;;;;;;;12.70;3.60;;;;;;;7.78;49.68;101256.56;7389420;19;20001;-59
2022/11/25 05:13:42;;;;;;;11.38;3.78;;;;;;;7.77;49.89;101260.38;7389725;19;19991;-59
2022/11/25 05:16:14;;;;;;;9.02;3.30;;;;;;;7.82;49.68;101255.94;7396125;19;20010;-58
2022/11/25 05:18:40;;;;;;;13.18;4.07;;;;;;;7.86;49.69;101256.91;7396754;19;20039;-58
2022/11/25 05:21:06;;;;;;;13.38;3.88;;;;;;;7.97;49.26;101256.31;7396231;19;20356;-59
2022/11/25 05:23:32;;;;;;;13.20;3.92;;;;;;;7.95;49.39;101249.59;7396893;19;20002;-59
2022/11/25 05:25:59;;;;;;;16.52;3.95;;;;;;;7.90;49.67;101257.91;7394741;19;20015;-59
2022/11/25 05:28:26;;;;;;;13.85;3.92;;;;;;;7.86;50.10;101254.19;7396288;19;20002;-58
2022/11/25 05:30:51;;;;;;;16.35;4.47;;;;;;;7.86;50.15;101254.19;7395419;19;20455;-58
2022/11/25 05:33:17;;;;;;;13.10;3.65;;;;;;;7.91;49.82;101263.03;7395208;19;20021;-59
2022/11/25 05:35:43;;;;;;;13.43;4.38;;;;;;;7.84;50.17;101251.78;7394137;19;20001;-58
2022/11/25 05:38:08;;;;;;;15.55;4.32;;;;;;;7.94;49.98;101248.00;7396652;19;20006;-59
2022/11/25 05:40:34;;;;;;;17.10;4.32;;;;;;;8.00;49.84;101254.91;7392762;19;20343;-59
2022/11/25 05:43:00;;;;;;;16.08;3.80;;;;;;;7.86;50.00;101254.19;7394188;19;19999;-60
2022/11/25 05:45:26;;;;;;;13.35;3.72;;;;;;;7.91;50.02;101245.91;7395443;19;20002;-59
2022/11/25 05:47:52;;;;;;;14.40;4.18;;;;;;;7.94;49.96;101254.22;7395979;19;19999;-59
2022/11/25 05:50:17;;;;;;;14.27;3.97;;;;;;;7.97;49.92;101252.81;7393435;19;20479;-60
2022/11/25 05:52:43;;;;;;;9.70;3.65;;;;;;;8.01;49.81;101258.41;7396236;19;20010;-58
2022/11/25 05:55:08;;;;;;;14.65;4.43;;;;;;;7.98;49.78;101251.72;7395016;19;20067;-59
2022/11/25 05:57:34;;;;;;;15.75;3.90;;;;;;;7.98;50.06;101251.72;7395866;19;20037;-59
2022/11/25 06:00:00;;;;;;;15.27;3.88;;;;;;;7.97;49.97;101250.88;7393839;19;19999;-59
2022/11/25 06:02:26;;;;;;;11.02;3.63;;;;;;;7.96;49.90;101252.00;7391392;19;19998;-59
2022/11/25 06:04:51;;;;;;;13.43;3.60;;;;;;;8.00;49.87;101254.91;7394057;19;20007;-59
2022/11/25 06:07:17;;;;;;;13.40;3.83;;;;;;;7.96;49.99;101254.75;7394869;19;20010;-58
2022/11/25 06:09:42;;;;;;;12.90;3.67;;;;;;;7.96;49.88;101253.91;7393996;19;19999;-59
2022/11/25 06:12:08;;;;;;;13.30;3.92;;;;;;;7.96;49.93;101253.91;7393578;19;20625;-58
2022/11/25 06:14:34;;;;;;;13.90;3.70;;;;;;;8.06;49.57;101253.63;7395485;19;20010;-59
2022/11/25 06:16:59;;;;;;;16.17;3.90;;;;;;;7.98;49.93;101257.94;7394127;19;20006;-60
2022/11/25 06:19:25;;;;;;;12.02;3.00;;;;;;;7.90;50.17;101266.06;7394000;19;20005;-58
2022/11/25 06:21:51;;;;;;;11.25;3.50;;;;;;;7.98;50.17;101259.88;7393235;19;19998;-59
2022/11/25 06:24:16;;;;;;;12.20;3.90;;;;;;;8.02;50.12;101254.59;7395744;19;20002;-58
2022/11/25 06:26:42;;;;;;;14.02;3.90;;;;;;;8.01;50.13;101256.50;7393804;19;20007;-59
2022/11/25 06:29:08;;;;;;;9.60;3.60;;;;;;;7.91;50.39;101264.91;7393901;19;20373;-58
2022/11/25 06:31:33;;;;;;;15.30;3.70;;;;;;;7.97;50.30;101261.75;7392902;19;20022;-59
2022/11/25 06:33:59;;;;;;;13.50;3.78;;;;;;;7.97;50.30;101267.19;7392385;19;20026;-58
2022/11/25 06:36:24;;;;;;;11.80;4.10;;;;;;;7.94;50.40;101270.53;7392515;19;20025;-58
2022/11/25 06:38:52;;;;;;;14.20;3.92;;;;;;;8.02;50.32;101279.84;7393562;19;20002;-58
2022/11/25 06:41:19;;;;;;;10.88;3.63;;;;;;;8.02;50.72;101279.84;7394348;19;19994;-58
2022/11/25 06:43:45;;;;;;;12.73;3.90;;;;;;;7.98;50.60;101279.69;7394148;19;20027;-58
2022/11/25 06:46:13;;;;;;;12.88;3.80;;;;;;;7.74;51.30;101290.09;7394420;19;20003;-59
2022/11/25 06:48:39;;;;;;;12.10;3.58;;;;;;;7.78;51.15;101286.44;7393336;19;19998;-59
2022/11/25 06:51:07;;;;;;;14.50;3.58;;;;;;;7.91;51.02;101286.66;7394301;19;20003;-59
2022/11/25 06:56:16;;;;;;;11.63;3.85;;;;;;;7.95;51.25;101279.50;7390522;19;20015;-58
2022/11/25 06:58:45;;;;;;;13.75;3.47;;;;;;;7.95;51.48;101290.38;7393433;19;20050;-57
2022/11/25 07:01:14;;;;;;;11.73;3.60;;;;;;;7.98;51.45;101284.31;7394023;19;20054;-57
2022/11/25 07:03:40;;;;;;;13.32;3.80;;;;;;;7.98;51.51;101287.03;7392655;19;20025;-57
2022/11/25 07:06:07;;;;;;;11.32;4.03;;;;;;;7.96;51.69;101286.53;7391203;19;20390;-57
2022/11/25 07:08:33;;;;;;;9.73;3.80;;;;;;;7.96;51.67;101286.53;7394740;19;20002;-56
2022/11/25 07:11:04;;;;;;;18.98;4.53;;;;;;;7.93;51.91;101287.97;7393193;19;20002;-57
2022/11/25 07:13:30;;;;;;;13.50;3.72;;;;;;;7.89;51.93;101286.97;7394182;19;20018;-56
2022/11/25 07:15:59;;;;;;;12.13;3.88;;;;;;;7.92;51.70;101282.84;7389748;19;19998;-56
2022/11/25 07:18:27;;;;;;;13.40;3.85;;;;;;;7.98;51.85;101295.19;7392292;19;20013;-57
2022/11/25 07:20:52;;;;;;;12.57;3.70;;;;;;;7.95;51.75;101291.19;7393219;19;20026;-56
2022/11/25 07:23:18;;;;;;;13.73;3.95;;;;;;;7.98;51.74;101301.44;7393573;19;20006;-57
2022/11/25 07:25:44;;;;;;;12.95;4.10;;;;;;;8.02;51.62;101298.09;7389201;19;20003;-57
2022/11/25 07:28:09;;;;;;;13.05;3.65;;;;;;;7.98;51.73;101306.88;7394281;19;20001;-57
2022/11/25 07:30:35;;;;;;;17.05;3.80;;;;;;;7.97;52.12;101313.41;7393915;19;20351;-57
2022/11/25 07:33:01;;;;;;;12.77;3.80;;;;;;;7.99;51.88;101313.09;7391387;19;19998;-58
2022/11/25 07:35:26;;;;;;;10.90;3.47;;;;;;;8.06;51.87;101318.88;7391350;19;19991;-57
2022/11/25 07:37:52;;;;;;;17.38;4.72;;;;;;;7.92;52.08;101331.78;7390875;19;20006;-57
2022/11/25 07:40:25;;;;;;;15.93;4.28;;;;;;;7.94;52.04;101340.41;7393878;19;19999;-57
2022/11/25 07:42:50;;;;;;;11.55;3.65;;;;;;;8.01;52.19;101346.19;7386811;19;20018;-58
2022/11/25 07:45:16;;;;;;;14.20;3.40;;;;;;;7.99;52.09;101348.44;7389491;19;20010;-58
2022/11/25 07:47:42;;;;;;;12.02;3.85;;;;;;;7.86;52.34;101350.09;7392691;19;20003;-58
2022/11/25 07:50:08;;;;;;;12.30;3.78;;;;;;;7.92;52.32;101353.53;7391972;19;20492;-58
2022/11/25 07:52:36;;;;;;;14.55;3.70;;;;;;;7.93;52.28;101355.94;7393184;19;19999;-58
2022/11/25 07:55:02;;;;;;;14.98;4.10;;;;;;;8.01;52.21;101359.78;7390759;19;20007;-57
2022/11/25 07:57:28;;;;;;;11.23;3.70;;;;;;;8.01;52.27;101359.78;7392130;19;20002;-58
2022/11/25 07:59:53;;;;;;;14.23;3.75;;;;;;;8.04;52.19;101375.50;7390452;19;20011;-57
2022/11/25 08:02:19;;;;;;;14.05;3.80;;;;;;;8.07;52.20;101364.00;7390282;19;19998;-58
2022/11/25 08:04:44;;;;;;;13.35;3.70;;;;;;;8.04;52.17;101366.53;7391254;19;20005;-58
2022/11/25 08:07:10;;;;;;;13.98;3.70;;;;;;;8.12;52.21;101371.25;7392232;19;20027;-58
2022/11/25 08:09:36;;;;;;;15.00;3.65;;;;;;;8.07;52.37;101374.09;7391837;19;20394;-58
2022/11/25 08:12:02;;;;;;;14.13;4.07;;;;;;;8.07;52.42;101379.53;7391536;19;20032;-58
2022/11/25 08:14:28;;;;;;;13.60;3.67;;;;;;;8.03;52.24;101379.34;7389709;19;20006;-58
2022/11/25 08:16:53;;;;;;;17.05;4.15;;;;;;;8.05;52.47;101384.47;7390841;19;20032;-57
2022/11/25 08:19:19;;;;;;;15.10;3.90;;;;;;;8.08;52.66;101387.38;7390931;19;20347;-58
2022/11/25 08:21:46;;;;;;;13.95;4.15;;;;;;;8.13;52.06;101386.41;7391742;19;20009;-58
2022/11/25 08:24:15;;;;;;;13.05;3.90;;;;;;;8.13;52.09;101389.97;7390533;19;20002;-58
2022/11/25 08:26:41;;;;;;;11.00;3.70;;;;;;;8.06;52.45;101392.28;7388958;19;20331;-57
2022/11/25 08:29:08;;;;;;;11.85;4.28;;;;;;;8.19;52.10;101392.56;7391401;19;19998;-58
2022/11/25 08:31:37;;;;;;;15.20;4.00;;;;;;;8.24;52.13;101395.16;7392031;19;20058;-58
2022/11/25 08:34:06;;;;;;;12.98;3.55;;;;;;;8.23;52.06;101401.69;7390958;19;20013;-58
2022/11/25 08:36:34;;;;;;;14.18;4.03;;;;;;;8.24;52.21;101412.25;7390611;19;20001;-58
2022/11/25 08:39:03;;;;;;;14.38;4.47;;;;;;;8.06;52.46;101413.25;7391477;19;20151;-58
2022/11/25 08:41:32;;;;;;;15.60;3.95;;;;;;;7.69;53.48;101415.19;7390845;19;19995;-58
2022/11/25 08:44:00;;;;;;;12.07;3.70;;;;;;;7.91;53.12;101406.25;7388023;19;20462;-58
2022/11/25 08:46:29;;;;;;;12.38;4.00;;;;;;;8.15;52.72;101414.94;7389093;19;20334;-58
2022/11/25 08:48:55;;;;;;;13.73;4.65;;;;;;;8.24;52.28;101414.97;7390967;19;20656;-58
2022/11/25 08:51:27;;;;;;;13.35;3.50;;;;;;;8.23;52.57;101409.84;7398197;19;20080;-58
2022/11/25 08:53:53;;;;;;;15.45;4.28;;;;;;;8.29;52.53;101409.41;7397970;19;20360;-58
2022/11/25 08:56:22;;;;;;;14.10;4.35;;;;;;;8.38;52.10;101411.41;7393541;19;20355;-58
2022/11/25 08:58:48;;;;;;;14.57;4.30;;;;;;;8.43;52.17;101412.09;7397962;19;20006;-58
2022/11/25 09:01:15;;;;;;;13.77;3.90;;;;;;;8.50;51.82;101408.94;7397207;19;20002;-58
2022/11/25 09:03:45;;;;;;;12.88;3.47;;;;;;;8.53;52.12;101420.00;7397478;19;20013;-59
2022/11/25 09:06:12;;;;;;;17.52;3.75;;;;;;;8.50;52.14;101415.16;7396696;19;20002;-58
2022/11/25 09:08:39;;;;;;;15.00;3.60;;;;;;;8.44;52.41;101419.13;7398853;19;20024;-59
2022/11/25 09:11:06;;;;;;;13.98;4.03;;;;;;;8.34;52.66;101412.03;7395793;19;20006;-58
2022/11/25 09:13:31;;;;;;;13.60;4.03;;;;;;;8.46;52.68;101419.59;7398485;19;20023;-59
2022/11/25 09:15:58;;;;;;;12.25;3.63;;;;;;;8.47;52.67;101423.16;7394788;19;20328;-58
2022/11/25 09:18:28;;;;;;;13.07;3.85;;;;;;;8.56;52.29;101423.19;7397821;19;19998;-58
2022/11/25 09:20:55;;;;;;;14.88;4.65;;;;;;;8.62;52.44;101417.31;7395994;19;20012;-58
2022/11/25 09:23:24;;;;;;;17.05;3.90;;;;;;;8.69;52.38;101422.31;7395898;19;20002;-57
2022/11/25 09:25:55;;;;;;;16.15;5.22;;;;;;;8.66;52.49;101417.47;7394721;19;20026;-58
2022/11/25 09:28:25;;;;;;;14.77;3.80;;;;;;;8.69;52.47;101425.03;7397675;19;20463;-58
2022/11/25 09:30:51;;;;;;;16.20;3.58;;;;;;;8.70;52.49;101424.72;7395395;19;20003;-57
2022/11/25 09:33:18;;;;;;;12.93;3.97;;;;;;;8.61;52.66;101432.00;7396402;19;20379;-57
2022/11/25 09:35:44;;;;;;;12.93;3.85;;;;;;;8.64;52.85;101430.59;7394040;19;20010;-57
2022/11/25 09:38:10;;;;;;;15.43;3.95;;;;;;;8.75;52.57;101434.66;7396865;19;20340;-57
2022/11/25 09:40:45;;;;;;;15.48;4.07;;;;;;;8.81;52.63;101438.84;7396511;19;20478;-57
2022/11/25 09:46:41;;;;;;;13.50;4.22;;;;;;;8.87;52.55;101440.31;7396184;19;20005;-57
2022/11/25 09:49:19;;;;;;;16.50;4.22;;;;;;;8.87;52.58;101448.47;7396546;19;20336;-57
2022/11/25 09:52:10;;;;;;;15.88;4.15;;;;;;;8.87;52.66;101450.41;7397518;19;19999;-57
2022/11/25 09:55:18;;;;;;;11.07;3.75;;;;;;;8.90;52.62;101453.31;7394789;19;20522;-56
2022/11/25 09:58:08;;;;;;;15.18;3.83;;;;;;;8.82;52.85;101458.72;7395373;19;19998;-57
2022/11/25 10:00:39;;;;;;;14.13;4.28;;;;;;;8.92;52.66;101450.28;7394929;19;20767;-57
2022/11/25 10:03:39;;;;;;;15.70;3.92;;;;;;;8.98;52.57;101454.47;7394004;19;19998;-57
2022/11/25 10:06:16;;;;;;;11.75;4.03;;;;;;;9.00;52.67;101454.13;7395280;19;20026;-57
2022/11/25 10:08:46;;;;;;;14.05;4.07;;;;;;;9.02;52.67;101454.63;7395908;19;19995;-57
2022/11/25 10:11:15;;;;;;;21.75;4.68;;;;;;;8.92;52.79;101454.91;7395792;19;20018;-57
2022/11/25 10:13:57;;;;;;;14.75;4.28;;;;;;;8.96;52.92;101464.06;7393525;19;20002;-55
2022/11/25 10:16:35;;;;;;;16.27;4.72;;;;;;;8.99;53.21;101458.78;7394980;19;20087;-55
2022/11/25 10:19:15;;;;;;;13.38;4.30;;;;;;;9.06;52.89;101453.66;7394154;19;19987;-56
2022/11/25 10:21:41;;;;;;;15.57;4.20;;;;;;;9.12;52.74;101462.53;7393981;19;20474;-54
2022/11/25 10:24:16;;;;;;;18.08;4.65;;;;;;;9.16;52.54;101466.22;7394325;19;20009;-57
2022/11/25 10:26:46;;;;;;;15.05;4.45;;;;;;;9.06;53.09;101464.56;7392680;19;20007;-57
2022/11/25 10:29:23;;;;;;;14.75;4.20;;;;;;;9.08;53.10;101467.78;7394200;19;20015;-57
2022/11/25 10:31:55;;;;;;;16.50;4.40;;;;;;;9.16;52.87;101468.13;7395995;19;20054;-57
2022/11/25 10:34:44;;;;;;;12.20;4.50;;;;;;;9.18;52.99;101474.06;7392875;19;20018;-57
2022/11/25 10:37:16;;;;;;;14.90;4.20;;;;;;;9.20;53.00;101475.38;7394653;19;20003;-57
2022/11/25 10:39:42;;;;;;;13.30;4.68;;;;;;;9.14;53.08;101471.16;7395145;19;20005;-57
2022/11/25 10:42:20;;;;;;;15.13;3.97;;;;;;;9.02;53.46;101479.16;7391497;19;20007;-57
2022/11/25 10:44:46;;;;;;;15.40;4.53;;;;;;;9.04;53.40;101472.25;7393839;19;20066;-57
2022/11/25 10:47:23;;;;;;;19.08;4.80;;;;;;;9.03;53.51;101473.38;7392003;19;20482;-57
2022/11/25 10:49:49;;;;;;;15.07;4.47;;;;;;;9.11;53.28;101477.25;7395709;19;19999;-57
2022/11/25 10:52:20;;;;;;;16.40;5.05;;;;;;;9.16;53.01;101479.81;7394411;19;20315;-56
2022/11/25 10:55:16;;;;;;;16.88;5.30;;;;;;;9.18;53.00;101485.78;7392603;19;20017;-57
2022/11/25 10:57:42;;;;;;;12.23;3.88;;;;;;;9.14;53.46;101484.78;7394054;19;20010;-57
2022/11/25 11:00:36;;;;;;;15.43;4.50;;;;;;;9.24;53.12;101492.66;7392805;19;19995;-56
2022/11/25 11:03:31;;;;;;;14.85;4.75;;;;;;;9.18;53.38;101479.50;7391890;19;20003;-56
2022/11/25 11:05:57;;;;;;;15.43;4.13;;;;;;;9.19;53.32;101489.28;7389928;19;20050;-56
2022/11/25 11:08:39;;;;;;;15.73;4.95;;;;;;;9.30;53.24;101478.91;7393355;19;20025;-57
2022/11/25 11:11:21;;;;;;;16.38;4.95;;;;;;;9.42;52.98;101487.28;7393484;19;20103;-56
2022/11/25 11:13:49;;;;;;;13.60;4.82;;;;;;;9.54;52.74;101490.19;7390658;19;19995;-56
2022/11/25 11:16:37;;;;;;;14.95;5.10;;;;;;;9.59;52.87;101495.53;7392314;19;20002;-56
2022/11/25 11:19:03;;;;;;;19.10;5.15;;;;;;;9.52;52.89;101494.38;7393880;19;20014;-56
2022/11/25 11:21:43;;;;;;;16.85;4.97;;;;;;;9.57;53.07;101492.28;7393350;19;20003;-56
2022/11/25 11:24:33;;;;;;;14.98;4.47;;;;;;;9.57;53.43;101499.69;7392853;19;19998;-57
2022/11/25 11:27:08;;;;;;;15.23;5.05;;;;;;;9.67;53.14;101495.84;7393687;19;20030;-57
2022/11/25 11:29:35;;;;;;;13.65;4.50;;;;;;;9.71;52.91;101500.34;7393264;19;20003;-56
2022/11/25 11:32:04;;;;;;;17.60;4.97;;;;;;;9.70;52.94;101504.22;7390864;19;20458;-56
2022/11/25 11:34:48;;;;;;;15.20;4.97;;;;;;;9.84;53.27;101503.28;7390460;19;20086;-55
2022/11/25 11:37:37;;;;;;;16.15;4.75;;;;;;;9.82;53.00;101518.03;7393037;19;20003;-56
2022/11/25 11:40:29;;;;;;;12.65;4.70;;;;;;;9.84;53.15;101512.25;7394098;19;19998;-55
2022/11/25 11:43:13;;;;;;;16.23;4.90;;;;;;;10.06;52.92;101515.97;7390910;19;20425;-56
2022/11/25 11:45:50;;;;;;;19.23;5.15;;;;;;;10.00;53.32;101513.41;7389326;19;20373;-56
2022/11/25 11:48:28;;;;;;;15.35;4.93;;;;;;;10.07;53.15;101512.09;7390743;19;20477;-57
2022/11/25 11:51:05;;;;;;;16.45;4.90;;;;;;;10.04;53.25;101523.69;7390981;19;20013;-56